Terminal Aerodrome Forecast
Issued by NWS Detroit/Pontiac, MI

Home | Current Version | Previous Version | Text Only | Print | Product List | Glossary On
Versions: 1 2 3 4 5 6 7 8 9 10 11 12 13 14 15 16 17 18 19 20 21 22 23 24 25 26 27 28 29 30 31
304
FTUS43 KDTX 270236 AAA
TAFDTW
TAF AMD
KDTW 270236Z 2703/2806 20004KT P6SM BKN250
     FM271200 24006KT P6SM BKN100
     FM271700 31008KT P6SM BKN060 PROB30 2717/2720 6SM -RA BKN040
     FM280400 VRB04KT 4SM SHRA OVC025=

USA.gov is the U.S. government's official web portal to all federal, state and local government web resources and services.